sensor_id;sensor_type;location;lat;lon;timestamp;temperature;humidity
31725;DHT22;18306;40.960;14.836;2022-09-19T00:01:44;11.40;99.90
31725;DHT22;18306;40.960;14.836;2022-09-19T00:04:14;11.50;99.90
31725;DHT22;18306;40.960;14.836;2022-09-19T00:06:43;11.60;99.90
31725;DHT22;18306;40.960;14.836;2022-09-19T00:09:13;11.60;99.90
31725;DHT22;18306;40.960;14.836;2022-09-19T00:11:42;11.40;99.90
31725;DHT22;18306;40.960;14.836;2022-09-19T00:14:11;11.40;99.90
31725;DHT22;18306;40.960;14.836;2022-09-19T00:16:42;11.30;99.90
31725;DHT22;18306;40.960;14.836;2022-09-19T00:19:13;11.30;99.90
31725;DHT22;18306;40.960;14.836;2022-09-19T00:21:43;11.40;99.90
31725;DHT22;18306;40.960;14.836;2022-09-19T00:24:13;11.20;99.90
31725;DHT22;18306;40.960;14.836;2022-09-19T00:26:59;11.20;99.90
31725;DHT22;18306;40.960;14.836;2022-09-19T00:29:26;11.30;99.90
31725;DHT22;18306;40.960;14.836;2022-09-19T00:31:54;11.30;99.90
31725;DHT22;18306;40.960;14.836;2022-09-19T00:34:21;11.40;99.90
31725;DHT22;18306;40.960;14.836;2022-09-19T00:36:48;11.50;99.90
31725;DHT22;18306;40.960;14.836;2022-09-19T00:39:18;11.40;99.90
31725;DHT22;18306;40.960;14.836;2022-09-19T00:41:47;11.40;99.90
31725;DHT22;18306;40.960;14.836;2022-09-19T00:46:54;11.30;99.90
31725;DHT22;18306;40.960;14.836;2022-09-19T00:49:24;11.20;99.90
31725;DHT22;18306;40.960;14.836;2022-09-19T00:52:01;11.20;99.90
31725;DHT22;18306;40.960;14.836;2022-09-19T00:54:36;11.20;99.90
31725;DHT22;18306;40.960;14.836;2022-09-19T00:57:08;11.20;99.90
31725;DHT22;18306;40.960;14.836;2022-09-19T00:59:39;11.30;99.90
31725;DHT22;18306;40.960;14.836;2022-09-19T01:02:08;11.20;99.90
31725;DHT22;18306;40.960;14.836;2022-09-19T01:04:38;11.30;99.90
31725;DHT22;18306;40.960;14.836;2022-09-19T01:07:21;11.30;99.90
31725;DHT22;18306;40.960;14.836;2022-09-19T01:10:08;11.00;99.90
31725;DHT22;18306;40.960;14.836;2022-09-19T01:15:28;11.00;99.90
31725;DHT22;18306;40.960;14.836;2022-09-19T01:17:59;10.90;99.90
31725;DHT22;18306;40.960;14.836;2022-09-19T01:20:44;10.80;99.90
31725;DHT22;18306;40.960;14.836;2022-09-19T01:23:44;10.70;99.90
31725;DHT22;18306;40.960;14.836;2022-09-19T01:26:51;10.80;99.90
31725;DHT22;18306;40.960;14.836;2022-09-19T01:29:49;10.80;99.90
31725;DHT22;18306;40.960;14.836;2022-09-19T01:32:22;10.80;99.90
31725;DHT22;18306;40.960;14.836;2022-09-19T01:34:53;10.80;99.90
31725;DHT22;18306;40.960;14.836;2022-09-19T01:37:35;10.90;99.90
31725;DHT22;18306;40.960;14.836;2022-09-19T01:40:06;10.80;99.90
31725;DHT22;18306;40.960;14.836;2022-09-19T01:42:51;11.00;99.90
31725;DHT22;18306;40.960;14.836;2022-09-19T01:45:28;11.10;99.90
31725;DHT22;18306;40.960;14.836;2022-09-19T01:48:22;10.80;99.90
31725;DHT22;18306;40.960;14.836;2022-09-19T01:51:09;10.60;99.90
31725;DHT22;18306;40.960;14.836;2022-09-19T01:56:50;10.60;99.90
31725;DHT22;18306;40.960;14.836;2022-09-19T02:05:10;10.40;99.90
31725;DHT22;18306;40.960;14.836;2022-09-19T02:07:44;10.50;99.90
31725;DHT22;18306;40.960;14.836;2022-09-19T02:10:58;10.70;99.90
31725;DHT22;18306;40.960;14.836;2022-09-19T02:13:07;10.70;99.90
31725;DHT22;18306;40.960;14.836;2022-09-19T02:15:53;10.70;99.90
31725;DHT22;18306;40.960;14.836;2022-09-19T02:18:26;10.50;99.90
31725;DHT22;18306;40.960;14.836;2022-09-19T02:21:03;10.60;99.90
31725;DHT22;18306;40.960;14.836;2022-09-19T02:23:36;10.60;99.90
31725;DHT22;18306;40.960;14.836;2022-09-19T02:26:06;10.60;99.90
31725;DHT22;18306;40.960;14.836;2022-09-19T02:28:38;10.60;99.90
31725;DHT22;18306;40.960;14.836;2022-09-19T02:31:12;10.70;99.90
31725;DHT22;18306;40.960;14.836;2022-09-19T02:33:41;10.80;99.90
31725;DHT22;18306;40.960;14.836;2022-09-19T02:36:30;10.80;99.90
31725;DHT22;18306;40.960;14.836;2022-09-19T02:42:01;10.70;99.90
31725;DHT22;18306;40.960;14.836;2022-09-19T02:47:38;10.50;99.90
31725;DHT22;18306;40.960;14.836;2022-09-19T02:50:17;10.40;99.90
31725;DHT22;18306;40.960;14.836;2022-09-19T02:52:46;10.60;99.90
31725;DHT22;18306;40.960;14.836;2022-09-19T02:55:25;10.50;99.90
31725;DHT22;18306;40.960;14.836;2022-09-19T02:57:58;10.50;99.90
31725;DHT22;18306;40.960;14.836;2022-09-19T03:00:31;10.50;99.90
31725;DHT22;18306;40.960;14.836;2022-09-19T03:03:36;10.50;99.90
31725;DHT22;18306;40.960;14.836;2022-09-19T03:06:27;10.60;99.90
31725;DHT22;18306;40.960;14.836;2022-09-19T03:08:56;10.50;99.90
31725;DHT22;18306;40.960;14.836;2022-09-19T03:11:27;10.50;99.90
31725;DHT22;18306;40.960;14.836;2022-09-19T03:13:55;10.50;99.90
31725;DHT22;18306;40.960;14.836;2022-09-19T03:16:26;10.50;99.90
31725;DHT22;18306;40.960;14.836;2022-09-19T03:18:54;10.30;99.90
31725;DHT22;18306;40.960;14.836;2022-09-19T03:21:24;10.40;99.90
31725;DHT22;18306;40.960;14.836;2022-09-19T03:23:53;10.40;99.90
31725;DHT22;18306;40.960;14.836;2022-09-19T03:26:29;10.30;99.90
31725;DHT22;18306;40.960;14.836;2022-09-19T03:28:58;10.20;99.90
31725;DHT22;18306;40.960;14.836;2022-09-19T03:31:33;10.20;99.90
31725;DHT22;18306;40.960;14.836;2022-09-19T03:34:04;10.30;99.90
31725;DHT22;18306;40.960;14.836;2022-09-19T03:36:46;10.30;99.90
31725;DHT22;18306;40.960;14.836;2022-09-19T03:39:38;10.40;99.90
31725;DHT22;18306;40.960;14.836;2022-09-19T03:42:19;10.50;99.90
31725;DHT22;18306;40.960;14.836;2022-09-19T03:44:59;10.50;99.90
31725;DHT22;18306;40.960;14.836;2022-09-19T03:47:39;10.70;99.90
31725;DHT22;18306;40.960;14.836;2022-09-19T03:50:12;10.90;99.90
31725;DHT22;18306;40.960;14.836;2022-09-19T03:53:10;10.80;99.90
31725;DHT22;18306;40.960;14.836;2022-09-19T03:55:38;10.40;99.90
31725;DHT22;18306;40.960;14.836;2022-09-19T03:58:13;10.30;99.90
31725;DHT22;18306;40.960;14.836;2022-09-19T04:00:40;10.60;99.90
31725;DHT22;18306;40.960;14.836;2022-09-19T04:03:10;10.50;99.90
31725;DHT22;18306;40.960;14.836;2022-09-19T04:05:37;10.50;99.90
31725;DHT22;18306;40.960;14.836;2022-09-19T04:08:05;10.20;99.90
31725;DHT22;18306;40.960;14.836;2022-09-19T04:10:32;10.30;99.90
31725;DHT22;18306;40.960;14.836;2022-09-19T04:12:59;10.40;99.90
31725;DHT22;18306;40.960;14.836;2022-09-19T04:15:27;10.20;99.90
31725;DHT22;18306;40.960;14.836;2022-09-19T04:17:55;10.20;99.90
31725;DHT22;18306;40.960;14.836;2022-09-19T04:20:22;10.40;99.90
31725;DHT22;18306;40.960;14.836;2022-09-19T04:23:15;10.40;99.90
31725;DHT22;18306;40.960;14.836;2022-09-19T04:26:13;10.60;99.90
31725;DHT22;18306;40.960;14.836;2022-09-19T04:28:42;10.30;99.90
31725;DHT22;18306;40.960;14.836;2022-09-19T04:31:11;10.10;99.90
31725;DHT22;18306;40.960;14.836;2022-09-19T04:33:40;9.90;99.90
31725;DHT22;18306;40.960;14.836;2022-09-19T04:36:08;10.00;99.90
31725;DHT22;18306;40.960;14.836;2022-09-19T04:38:36;10.00;99.90
31725;DHT22;18306;40.960;14.836;2022-09-19T04:41:08;10.10;99.90
31725;DHT22;18306;40.960;14.836;2022-09-19T04:43:36;10.10;99.90
31725;DHT22;18306;40.960;14.836;2022-09-19T04:46:11;10.00;99.90
31725;DHT22;18306;40.960;14.836;2022-09-19T04:48:47;9.80;99.90
31725;DHT22;18306;40.960;14.836;2022-09-19T04:51:16;10.00;99.90
31725;DHT22;18306;40.960;14.836;2022-09-19T04:53:44;10.10;99.90
31725;DHT22;18306;40.960;14.836;2022-09-19T04:56:11;10.10;99.90
31725;DHT22;18306;40.960;14.836;2022-09-19T04:58:41;10.10;99.90
31725;DHT22;18306;40.960;14.836;2022-09-19T05:01:12;10.10;99.90
31725;DHT22;18306;40.960;14.836;2022-09-19T05:03:40;10.20;99.90
31725;DHT22;18306;40.960;14.836;2022-09-19T05:06:13;10.20;99.90
31725;DHT22;18306;40.960;14.836;2022-09-19T05:08:41;10.30;99.90
31725;DHT22;18306;40.960;14.836;2022-09-19T05:11:15;10.30;99.90
31725;DHT22;18306;40.960;14.836;2022-09-19T05:13:45;10.20;99.90
31725;DHT22;18306;40.960;14.836;2022-09-19T05:16:17;10.20;99.90
31725;DHT22;18306;40.960;14.836;2022-09-19T05:19:03;10.00;99.90
31725;DHT22;18306;40.960;14.836;2022-09-19T05:21:30;10.20;99.90
31725;DHT22;18306;40.960;14.836;2022-09-19T05:24:01;10.20;99.90
31725;DHT22;18306;40.960;14.836;2022-09-19T05:26:28;10.20;99.90
31725;DHT22;18306;40.960;14.836;2022-09-19T05:28:58;10.30;99.90
31725;DHT22;18306;40.960;14.836;2022-09-19T05:31:32;10.30;99.90
31725;DHT22;18306;40.960;14.836;2022-09-19T05:34:14;10.50;99.90
31725;DHT22;18306;40.960;14.836;2022-09-19T05:36:42;10.60;99.90
31725;DHT22;18306;40.960;14.836;2022-09-19T05:39:20;10.60;99.90
31725;DHT22;18306;40.960;14.836;2022-09-19T05:42:10;10.70;99.90
31725;DHT22;18306;40.960;14.836;2022-09-19T05:44:37;10.60;99.90
31725;DHT22;18306;40.960;14.836;2022-09-19T05:47:05;10.70;99.90
31725;DHT22;18306;40.960;14.836;2022-09-19T05:49:32;10.80;99.90
31725;DHT22;18306;40.960;14.836;2022-09-19T05:52:02;10.90;99.90
31725;DHT22;18306;40.960;14.836;2022-09-19T05:54:49;11.00;99.90
31725;DHT22;18306;40.960;14.836;2022-09-19T05:57:34;11.00;99.90
31725;DHT22;18306;40.960;14.836;2022-09-19T06:00:03;11.10;99.90
31725;DHT22;18306;40.960;14.836;2022-09-19T06:02:39;11.10;99.90
31725;DHT22;18306;40.960;14.836;2022-09-19T06:05:09;11.90;99.90
31725;DHT22;18306;40.960;14.836;2022-09-19T06:07:39;14.90;99.90
31725;DHT22;18306;40.960;14.836;2022-09-19T06:10:07;16.30;99.90
31725;DHT22;18306;40.960;14.836;2022-09-19T06:12:35;16.90;99.90
31725;DHT22;18306;40.960;14.836;2022-09-19T06:15:02;17.60;99.90
31725;DHT22;18306;40.960;14.836;2022-09-19T06:17:30;18.10;99.90
31725;DHT22;18306;40.960;14.836;2022-09-19T06:20:18;16.30;99.90
31725;DHT22;18306;40.960;14.836;2022-09-19T06:23:09;14.20;99.90
31725;DHT22;18306;40.960;14.836;2022-09-19T06:25:38;13.40;99.90
31725;DHT22;18306;40.960;14.836;2022-09-19T06:28:15;13.00;99.90
31725;DHT22;18306;40.960;14.836;2022-09-19T06:30:51;13.20;99.90
31725;DHT22;18306;40.960;14.836;2022-09-19T06:33:21;13.40;99.90
31725;DHT22;18306;40.960;14.836;2022-09-19T06:36:00;13.40;99.90
31725;DHT22;18306;40.960;14.836;2022-09-19T06:38:30;13.60;99.90
31725;DHT22;18306;40.960;14.836;2022-09-19T06:41:10;13.70;99.90
31725;DHT22;18306;40.960;14.836;2022-09-19T06:43:56;13.90;99.90
31725;DHT22;18306;40.960;14.836;2022-09-19T06:46:58;14.30;99.90
31725;DHT22;18306;40.960;14.836;2022-09-19T06:49:32;14.90;99.90
31725;DHT22;18306;40.960;14.836;2022-09-19T06:52:14;15.10;99.90
31725;DHT22;18306;40.960;14.836;2022-09-19T06:54:42;15.20;99.90
31725;DHT22;18306;40.960;14.836;2022-09-19T06:57:10;15.40;99.90
31725;DHT22;18306;40.960;14.836;2022-09-19T06:59:37;15.30;99.90
31725;DHT22;18306;40.960;14.836;2022-09-19T07:02:06;15.30;99.90
31725;DHT22;18306;40.960;14.836;2022-09-19T07:04:34;15.60;99.90
31725;DHT22;18306;40.960;14.836;2022-09-19T07:07:09;15.70;99.90
31725;DHT22;18306;40.960;14.836;2022-09-19T07:09:46;15.70;99.90
31725;DHT22;18306;40.960;14.836;2022-09-19T07:12:13;15.90;99.90
31725;DHT22;18306;40.960;14.836;2022-09-19T07:14:40;16.10;99.90
31725;DHT22;18306;40.960;14.836;2022-09-19T07:17:09;16.30;99.90
31725;DHT22;18306;40.960;14.836;2022-09-19T07:19:45;16.60;99.90
31725;DHT22;18306;40.960;14.836;2022-09-19T07:22:27;16.90;99.90
31725;DHT22;18306;40.960;14.836;2022-09-19T07:25:20;17.20;99.90
31725;DHT22;18306;40.960;14.836;2022-09-19T07:28:00;17.90;99.90
31725;DHT22;18306;40.960;14.836;2022-09-19T07:30:28;19.50;99.90
31725;DHT22;18306;40.960;14.836;2022-09-19T07:32:58;20.60;99.90
31725;DHT22;18306;40.960;14.836;2022-09-19T07:35:32;20.40;99.90
31725;DHT22;18306;40.960;14.836;2022-09-19T07:38:27;19.60;99.90
31725;DHT22;18306;40.960;14.836;2022-09-19T07:41:12;19.90;99.90
31725;DHT22;18306;40.960;14.836;2022-09-19T07:44:00;20.60;99.90
31725;DHT22;18306;40.960;14.836;2022-09-19T07:46:50;21.30;99.90
31725;DHT22;18306;40.960;14.836;2022-09-19T07:49:56;20.90;99.90
31725;DHT22;18306;40.960;14.836;2022-09-19T07:52:45;20.90;99.90
31725;DHT22;18306;40.960;14.836;2022-09-19T07:55:19;22.20;99.90
31725;DHT22;18306;40.960;14.836;2022-09-19T07:57:56;22.20;99.90
31725;DHT22;18306;40.960;14.836;2022-09-19T08:00:49;21.30;99.90
31725;DHT22;18306;40.960;14.836;2022-09-19T08:03:41;20.70;99.90
31725;DHT22;18306;40.960;14.836;2022-09-19T08:06:11;20.50;99.90
31725;DHT22;18306;40.960;14.836;2022-09-19T08:08:43;20.40;99.90
31725;DHT22;18306;40.960;14.836;2022-09-19T08:11:35;20.30;99.90
31725;DHT22;18306;40.960;14.836;2022-09-19T08:14:04;20.30;99.90
31725;DHT22;18306;40.960;14.836;2022-09-19T08:16:33;20.40;99.90
31725;DHT22;18306;40.960;14.836;2022-09-19T08:19:02;20.40;99.90
31725;DHT22;18306;40.960;14.836;2022-09-19T08:21:35;20.30;99.90
31725;DHT22;18306;40.960;14.836;2022-09-19T08:24:05;20.40;99.90
31725;DHT22;18306;40.960;14.836;2022-09-19T08:26:35;20.50;99.90
31725;DHT22;18306;40.960;14.836;2022-09-19T08:29:04;20.50;99.90
31725;DHT22;18306;40.960;14.836;2022-09-19T08:31:42;20.50;99.90
31725;DHT22;18306;40.960;14.836;2022-09-19T08:34:10;20.50;99.90
31725;DHT22;18306;40.960;14.836;2022-09-19T08:36:41;20.50;99.90
31725;DHT22;18306;40.960;14.836;2022-09-19T08:39:10;20.60;99.90
31725;DHT22;18306;40.960;14.836;2022-09-19T08:47:13;20.60;99.90
31725;DHT22;18306;40.960;14.836;2022-09-19T08:50:09;20.60;99.90
31725;DHT22;18306;40.960;14.836;2022-09-19T08:52:52;20.60;99.90
31725;DHT22;18306;40.960;14.836;2022-09-19T08:55:34;20.70;99.90
31725;DHT22;18306;40.960;14.836;2022-09-19T08:58:17;20.60;99.90
31725;DHT22;18306;40.960;14.836;2022-09-19T09:01:08;20.60;99.90
31725;DHT22;18306;40.960;14.836;2022-09-19T09:18:01;21.10;99.90
31725;DHT22;18306;40.960;14.836;2022-09-19T09:20:39;21.10;99.90
31725;DHT22;18306;40.960;14.836;2022-09-19T09:26:26;21.10;99.90
31725;DHT22;18306;40.960;14.836;2022-09-19T09:29:22;21.20;99.90
31725;DHT22;18306;40.960;14.836;2022-09-19T09:32:34;21.30;99.90
31725;DHT22;18306;40.960;14.836;2022-09-19T09:35:33;21.30;99.90
31725;DHT22;18306;40.960;14.836;2022-09-19T09:41:07;21.40;99.90
31725;DHT22;18306;40.960;14.836;2022-09-19T09:44:08;21.60;99.90
31725;DHT22;18306;40.960;14.836;2022-09-19T09:49:22;21.60;99.90
31725;DHT22;18306;40.960;14.836;2022-09-19T09:51:58;21.70;99.90
31725;DHT22;18306;40.960;14.836;2022-09-19T09:54:39;21.70;99.90
31725;DHT22;18306;40.960;14.836;2022-09-19T09:58:12;21.70;99.90
31725;DHT22;18306;40.960;14.836;2022-09-19T10:00:47;21.80;99.90
31725;DHT22;18306;40.960;14.836;2022-09-19T10:03:52;21.70;99.90
31725;DHT22;18306;40.960;14.836;2022-09-19T10:06:57;21.90;99.90
31725;DHT22;18306;40.960;14.836;2022-09-19T10:09:33;22.00;99.90
31725;DHT22;18306;40.960;14.836;2022-09-19T10:12:18;22.00;99.90
31725;DHT22;18306;40.960;14.836;2022-09-19T10:14:52;22.10;99.90
31725;DHT22;18306;40.960;14.836;2022-09-19T10:17:39;22.10;99.90
31725;DHT22;18306;40.960;14.836;2022-09-19T10:20:22;22.10;99.90
31725;DHT22;18306;40.960;14.836;2022-09-19T10:22:50;22.20;99.90
31725;DHT22;18306;40.960;14.836;2022-09-19T10:25:24;22.20;99.90
31725;DHT22;18306;40.960;14.836;2022-09-19T10:27:54;22.30;99.90
31725;DHT22;18306;40.960;14.836;2022-09-19T10:30:37;22.50;99.90
31725;DHT22;18306;40.960;14.836;2022-09-19T10:33:40;22.40;99.90
31725;DHT22;18306;40.960;14.836;2022-09-19T10:36:23;22.40;99.90
31725;DHT22;18306;40.960;14.836;2022-09-19T10:38:56;22.50;99.90
31725;DHT22;18306;40.960;14.836;2022-09-19T10:41:30;22.60;99.90
31725;DHT22;18306;40.960;14.836;2022-09-19T10:44:21;22.60;99.90
31725;DHT22;18306;40.960;14.836;2022-09-19T10:46:56;22.50;99.90
31725;DHT22;18306;40.960;14.836;2022-09-19T10:49:46;22.30;99.90
31725;DHT22;18306;40.960;14.836;2022-09-19T10:52:25;22.30;99.90
31725;DHT22;18306;40.960;14.836;2022-09-19T10:54:59;22.40;99.90
31725;DHT22;18306;40.960;14.836;2022-09-19T11:00:31;22.60;99.90
31725;DHT22;18306;40.960;14.836;2022-09-19T11:03:24;22.70;99.90
31725;DHT22;18306;40.960;14.836;2022-09-19T11:06:09;22.70;99.90
31725;DHT22;18306;40.960;14.836;2022-09-19T11:08:47;22.70;99.90
31725;DHT22;18306;40.960;14.836;2022-09-19T11:11:32;22.90;99.90
31725;DHT22;18306;40.960;14.836;2022-09-19T11:14:15;22.80;99.90
31725;DHT22;18306;40.960;14.836;2022-09-19T11:17:09;22.70;99.90
31725;DHT22;18306;40.960;14.836;2022-09-19T11:25:58;22.80;99.90
31725;DHT22;18306;40.960;14.836;2022-09-19T11:28:40;22.80;99.90
31725;DHT22;18306;40.960;14.836;2022-09-19T11:31:41;23.00;99.90
31725;DHT22;18306;40.960;14.836;2022-09-19T11:42:50;23.20;99.90
31725;DHT22;18306;40.960;14.836;2022-09-19T11:45:25;23.30;99.90
31725;DHT22;18306;40.960;14.836;2022-09-19T11:48:25;23.30;99.90
31725;DHT22;18306;40.960;14.836;2022-09-19T11:54:27;23.20;99.90
31725;DHT22;18306;40.960;14.836;2022-09-19T12:00:00;23.10;99.90
31725;DHT22;18306;40.960;14.836;2022-09-19T12:08:39;23.10;99.90
31725;DHT22;18306;40.960;14.836;2022-09-19T12:11:31;23.20;99.90
31725;DHT22;18306;40.960;14.836;2022-09-19T12:14:17;23.20;99.90
31725;DHT22;18306;40.960;14.836;2022-09-19T12:16:55;23.30;99.90
31725;DHT22;18306;40.960;14.836;2022-09-19T12:19:41;23.50;99.90
31725;DHT22;18306;40.960;14.836;2022-09-19T12:22:22;23.70;99.90
31725;DHT22;18306;40.960;14.836;2022-09-19T12:25:02;23.70;99.90
31725;DHT22;18306;40.960;14.836;2022-09-19T12:27:40;23.70;99.90
31725;DHT22;18306;40.960;14.836;2022-09-19T12:30:14;23.70;99.90
31725;DHT22;18306;40.960;14.836;2022-09-19T12:35:36;23.80;99.90
31725;DHT22;18306;40.960;14.836;2022-09-19T12:39:02;23.80;99.90
31725;DHT22;18306;40.960;14.836;2022-09-19T12:41:55;23.60;99.90
31725;DHT22;18306;40.960;14.836;2022-09-19T12:47:23;23.80;99.90
31725;DHT22;18306;40.960;14.836;2022-09-19T12:53:35;23.80;99.90
31725;DHT22;18306;40.960;14.836;2022-09-19T12:56:16;23.60;99.90
31725;DHT22;18306;40.960;14.836;2022-09-19T12:59:20;23.60;99.90
31725;DHT22;18306;40.960;14.836;2022-09-19T13:01:55;23.70;99.90
31725;DHT22;18306;40.960;14.836;2022-09-19T13:04:44;23.80;99.90
31725;DHT22;18306;40.960;14.836;2022-09-19T13:10:26;23.50;99.90
31725;DHT22;18306;40.960;14.836;2022-09-19T13:13:09;23.40;99.90
31725;DHT22;18306;40.960;14.836;2022-09-19T13:15:59;23.40;99.90
31725;DHT22;18306;40.960;14.836;2022-09-19T13:18:29;23.40;99.90
31725;DHT22;18306;40.960;14.836;2022-09-19T13:21:20;23.30;99.90
31725;DHT22;18306;40.960;14.836;2022-09-19T13:24:08;23.40;99.90
31725;DHT22;18306;40.960;14.836;2022-09-19T13:26:38;23.50;99.90
31725;DHT22;18306;40.960;14.836;2022-09-19T13:32:02;23.60;99.90
31725;DHT22;18306;40.960;14.836;2022-09-19T13:45:41;23.10;99.90
31725;DHT22;18306;40.960;14.836;2022-09-19T13:51:12;22.70;99.90
31725;DHT22;18306;40.960;14.836;2022-09-19T13:53:44;22.80;99.90
31725;DHT22;18306;40.960;14.836;2022-09-19T13:56:33;23.00;99.90
31725;DHT22;18306;40.960;14.836;2022-09-19T13:59:24;23.00;99.90
31725;DHT22;18306;40.960;14.836;2022-09-19T14:05:14;22.90;99.90
31725;DHT22;18306;40.960;14.836;2022-09-19T14:07:59;22.80;99.90
31725;DHT22;18306;40.960;14.836;2022-09-19T14:10:58;22.70;99.90
31725;DHT22;18306;40.960;14.836;2022-09-19T14:13:37;22.70;99.90
31725;DHT22;18306;40.960;14.836;2022-09-19T14:16:27;22.70;99.90
31725;DHT22;18306;40.960;14.836;2022-09-19T14:18:56;22.80;99.90
31725;DHT22;18306;40.960;14.836;2022-09-19T14:24:04;22.80;99.90
31725;DHT22;18306;40.960;14.836;2022-09-19T14:26:45;22.80;99.90
31725;DHT22;18306;40.960;14.836;2022-09-19T14:34:59;22.60;99.90
31725;DHT22;18306;40.960;14.836;2022-09-19T14:37:54;22.50;99.90
31725;DHT22;18306;40.960;14.836;2022-09-19T14:40:37;22.50;99.90
31725;DHT22;18306;40.960;14.836;2022-09-19T14:43:14;22.50;99.90
31725;DHT22;18306;40.960;14.836;2022-09-19T14:51:42;22.50;99.90
31725;DHT22;18306;40.960;14.836;2022-09-19T14:57:00;22.40;99.90
31725;DHT22;18306;40.960;14.836;2022-09-19T14:59:33;22.40;99.90
31725;DHT22;18306;40.960;14.836;2022-09-19T15:02:11;22.40;99.90
31725;DHT22;18306;40.960;14.836;2022-09-19T15:04:41;22.30;99.90
31725;DHT22;18306;40.960;14.836;2022-09-19T15:07:10;22.30;99.90
31725;DHT22;18306;40.960;14.836;2022-09-19T15:09:38;22.30;99.90
31725;DHT22;18306;40.960;14.836;2022-09-19T15:12:14;22.30;99.90
31725;DHT22;18306;40.960;14.836;2022-09-19T15:14:48;22.20;99.90
31725;DHT22;18306;40.960;14.836;2022-09-19T15:17:20;22.20;99.90
31725;DHT22;18306;40.960;14.836;2022-09-19T15:22:44;22.10;99.90
31725;DHT22;18306;40.960;14.836;2022-09-19T15:27:59;22.00;99.90
31725;DHT22;18306;40.960;14.836;2022-09-19T15:30:33;22.00;99.90
31725;DHT22;18306;40.960;14.836;2022-09-19T15:33:09;22.00;99.90
31725;DHT22;18306;40.960;14.836;2022-09-19T15:35:41;22.00;99.90
31725;DHT22;18306;40.960;14.836;2022-09-19T15:41:15;21.90;99.90
31725;DHT22;18306;40.960;14.836;2022-09-19T15:43:45;21.80;99.90
31725;DHT22;18306;40.960;14.836;2022-09-19T15:49:03;21.80;99.90
31725;DHT22;18306;40.960;14.836;2022-09-19T15:51:34;21.70;99.90
31725;DHT22;18306;40.960;14.836;2022-09-19T15:54:04;21.70;99.90
31725;DHT22;18306;40.960;14.836;2022-09-19T15:56:46;21.60;99.90
31725;DHT22;18306;40.960;14.836;2022-09-19T15:59:35;21.60;99.90
31725;DHT22;18306;40.960;14.836;2022-09-19T16:02:04;21.60;99.90
31725;DHT22;18306;40.960;14.836;2022-09-19T16:04:42;21.50;99.90
31725;DHT22;18306;40.960;14.836;2022-09-19T16:07:39;21.50;99.90
31725;DHT22;18306;40.960;14.836;2022-09-19T16:10:32;21.50;99.90
31725;DHT22;18306;40.960;14.836;2022-09-19T16:13:00;21.40;99.90
31725;DHT22;18306;40.960;14.836;2022-09-19T16:15:33;21.40;99.90
31725;DHT22;18306;40.960;14.836;2022-09-19T16:23:03;21.20;99.90
31725;DHT22;18306;40.960;14.836;2022-09-19T16:28:57;21.10;99.90
31725;DHT22;18306;40.960;14.836;2022-09-19T16:31:34;21.00;99.90
31725;DHT22;18306;40.960;14.836;2022-09-19T16:34:31;21.00;99.90
31725;DHT22;18306;40.960;14.836;2022-09-19T16:37:00;20.80;99.90
31725;DHT22;18306;40.960;14.836;2022-09-19T16:39:42;20.70;99.90
31725;DHT22;18306;40.960;14.836;2022-09-19T16:47:21;20.60;99.90
31725;DHT22;18306;40.960;14.836;2022-09-19T16:49:51;20.40;99.90
31725;DHT22;18306;40.960;14.836;2022-09-19T16:52:25;20.40;99.90
31725;DHT22;18306;40.960;14.836;2022-09-19T16:54:54;20.40;99.90
31725;DHT22;18306;40.960;14.836;2022-09-19T16:57:26;20.40;99.90
31725;DHT22;18306;40.960;14.836;2022-09-19T16:59:54;20.30;99.90
31725;DHT22;18306;40.960;14.836;2022-09-19T17:02:28;20.20;99.90
31725;DHT22;18306;40.960;14.836;2022-09-19T17:04:59;20.30;99.90
31725;DHT22;18306;40.960;14.836;2022-09-19T17:07:28;20.20;99.90
31725;DHT22;18306;40.960;14.836;2022-09-19T17:09:57;20.30;99.90
31725;DHT22;18306;40.960;14.836;2022-09-19T17:12:25;20.00;99.90
31725;DHT22;18306;40.960;14.836;2022-09-19T17:14:52;19.70;99.90
31725;DHT22;18306;40.960;14.836;2022-09-19T17:17:20;19.60;99.90
31725;DHT22;18306;40.960;14.836;2022-09-19T17:19:47;19.70;99.90
31725;DHT22;18306;40.960;14.836;2022-09-19T17:22:19;19.50;99.90
31725;DHT22;18306;40.960;14.836;2022-09-19T17:24:46;19.30;99.90
31725;DHT22;18306;40.960;14.836;2022-09-19T17:27:14;19.10;99.90
31725;DHT22;18306;40.960;14.836;2022-09-19T17:29:41;19.00;99.90
31725;DHT22;18306;40.960;14.836;2022-09-19T17:32:10;18.90;99.90
31725;DHT22;18306;40.960;14.836;2022-09-19T17:34:40;18.80;99.90
31725;DHT22;18306;40.960;14.836;2022-09-19T17:37:07;18.90;99.90
31725;DHT22;18306;40.960;14.836;2022-09-19T17:39:34;18.90;99.90
31725;DHT22;18306;40.960;14.836;2022-09-19T17:42:01;18.80;99.90
31725;DHT22;18306;40.960;14.836;2022-09-19T17:44:28;18.60;99.90
31725;DHT22;18306;40.960;14.836;2022-09-19T17:46:55;18.50;99.90
31725;DHT22;18306;40.960;14.836;2022-09-19T17:49:22;18.50;99.90
31725;DHT22;18306;40.960;14.836;2022-09-19T17:51:50;18.60;99.90
31725;DHT22;18306;40.960;14.836;2022-09-19T17:54:17;18.70;99.90
31725;DHT22;18306;40.960;14.836;2022-09-19T17:56:44;18.80;99.90
31725;DHT22;18306;40.960;14.836;2022-09-19T17:59:12;18.60;99.90
31725;DHT22;18306;40.960;14.836;2022-09-19T18:01:40;18.40;99.90
31725;DHT22;18306;40.960;14.836;2022-09-19T18:04:26;18.40;99.90
31725;DHT22;18306;40.960;14.836;2022-09-19T18:06:53;18.40;99.90
31725;DHT22;18306;40.960;14.836;2022-09-19T18:09:20;18.50;99.90
31725;DHT22;18306;40.960;14.836;2022-09-19T18:11:47;18.40;99.90
31725;DHT22;18306;40.960;14.836;2022-09-19T18:14:15;18.20;99.90
31725;DHT22;18306;40.960;14.836;2022-09-19T18:16:44;18.00;99.90
31725;DHT22;18306;40.960;14.836;2022-09-19T18:19:12;17.90;99.90
31725;DHT22;18306;40.960;14.836;2022-09-19T18:21:39;17.80;99.90
31725;DHT22;18306;40.960;14.836;2022-09-19T18:24:10;17.90;99.90
31725;DHT22;18306;40.960;14.836;2022-09-19T18:26:37;18.00;99.90
31725;DHT22;18306;40.960;14.836;2022-09-19T18:29:11;17.60;99.90
31725;DHT22;18306;40.960;14.836;2022-09-19T18:31:39;17.20;99.90
31725;DHT22;18306;40.960;14.836;2022-09-19T18:34:06;17.10;99.90
31725;DHT22;18306;40.960;14.836;2022-09-19T18:36:33;17.20;99.90
31725;DHT22;18306;40.960;14.836;2022-09-19T18:39:02;17.30;99.90
31725;DHT22;18306;40.960;14.836;2022-09-19T18:41:33;17.20;99.90
31725;DHT22;18306;40.960;14.836;2022-09-19T18:44:01;17.40;99.90
31725;DHT22;18306;40.960;14.836;2022-09-19T18:46:28;17.30;99.90